Terminal Aerodrome Forecast
Issued by NWS

Home | Current Version | Previous Version | Text Only | Print | Product List | Glossary On
Versions: 1 2 3 4 5 6 7 8 9 10 11 12 13 14
000
FTUS44 KOUN 011135
TAFCSM
TAF
KCSM 011135Z 0112/0212 34016G24KT P6SM BKN080
     FM011800 01013G19KT P6SM BKN040 PROB30 0121/0203 5SM -RA BR
      OVC025
     FM020300 34008KT P6SM BKN025=

USA.gov is the U.S. government's official web portal to all federal, state and local government web resources and services.